Skip Navigation Links
NOAA logo - Click to go to the NOAA homepage
NOAA's National Weather Service
Alaska Aviation Weather Unit
  NWS logo - Click to go to the NWS homepage
Left Navbar Graphic     21 AKDT = 05 GMT

   
NOAA is celebrating 200 years of science, service, and stewardship. Visit the NOAA 200th celebration Web site to learn more.
USA.gov is the U.S. Government's official Web portal to all Federal, state and local government Web resources and services.
Facebook
NWS on Facebook

Important Change Regarding the AAWU Web Presence

 

Over the last several months, the AAWU has been working to navigate its webpages to a nationally supported server. Security, as well as other needs, have necessitated the change.  In the process, we have made an effort to enhance the functionality of our website, as well as some of our products. As of June 27, 2017, aawu.arh.noaa.gov will be discontinued. The new AAWU web address is weather.gov/aawu. It is now live and will run in-parallel with the old site until it is discontinued. Please send any feedback or questions regarding the new webpages to nws.ar.aawu.webauthors@noaa.gov.  Thank you for your patience during this time of transition.
AAWU Home :: Display TAF Add Bookmark
PAOU 252349Z AUTO 12028KT 10SM BKN025 OVC032 11/08 A2975 RMK AO2
     PK WND 11035/2341=

METAR PAOU 252356Z AUTO 12031G37KT 10SM BKN025 OVC032 11/08 A2975
 RMK AO2 PK WND 12037/2355 SLP075 60007 T01110078 10111 20089
 56026=

SPECI PAOU 260022Z AUTO 12030KT 10SM SCT025 SCT032 BKN095 11/08
 A2974 RMK AO2 PK WND 12035/0001=

METAR PAOU 260056Z AUTO 12031G36KT 10SM BKN026 BKN032 OVC090 11/08 A2973
     RMK AO2 PK WND 12036/0047 SLP069 T01110083=

SPECI PAOU 260130Z AUTO 12026KT 9SM -RA SCT028 BKN050 OVC095 11/08 A2972
     RMK AO2 PK WND 12036/0103 RAB17 P0000=

METAR PAOU 260156Z AUTO 13026G31KT 7SM -RA FEW032 BKN055 OVC080
 11/09 A2971 RMK AO2 PK WND 12036/0103 RAB17 SLP061 P0001
 T01060089=

METAR PAOU 260256Z AUTO 12026G32KT 10SM -RA OVC065 11/08 A2969 RMK AO2
     PK WND 13032/0250 SLP055 P0007 60008 T01110083 56020=

METAR PAOU 260356Z AUTO 14025G32KT 10SM OVC060 12/08 A2968 RMK AO2 PK
     WND 13033/0346 RAE19 SLP050 P0000 T01170078=

METAR PAOU 260456Z AUTO 14021G25KT 10SM -RA OVC065 11/08 A2967 RMK AO2
     PK WND 13030/0358 RAB54 SLP048 P0000 T01110078=


NOAA's National Weather Service
Alaska Aviation Weather Unit
6930 Sand Lake Road
Anchorage, AK 99502-1845
Disclaimer
Credits
Glossary
Privacy Policy
About Us
Career Opportunities
Contact AAWU Internet Services Site last modified: April, 17th 2012